Observation data for Jayton on 05/16/2018      Previous  Date  Next       Current Mesonet Observations  Soil Data  Daily Summary Page  Observations in Plain Language
KJTS 160500Z 04009KT 19/14 A3003 RMK A01 T01900144  RH  078%=      5-min Rain = 0
KJTS 160505Z 04009G15KT 19/14 A3003 RMK A01 T01880142  RH  078%=      5-min Rain = 0
KJTS 160510Z 04011G17KT 19/14 A3003 RMK A01 T01860138  RH  077%=      5-min Rain = 0
KJTS 160515Z 05011G16KT 18/14 A3003 RMK A01 T01840135  RH  076%=      5-min Rain = 0
KJTS 160520Z 05009G14KT 18/13 A3002 RMK A01 T01830133  RH  075%=      5-min Rain = 0
KJTS 160525Z 06011G16KT 18/13 A3002 RMK A01 T01830131  RH  075%=      5-min Rain = 0
KJTS 160530Z 06010KT 18/13 A3001 RMK A01 T01840131  RH  074%=      5-min Rain = 0
KJTS 160535Z 07011KT 18/13 A3001 RMK A01 T01830131  RH  075%=      5-min Rain = 0
KJTS 160540Z 08010KT 18/13 A3001 RMK A01 T01830132  RH  075%=      5-min Rain = 0
KJTS 160545Z 08010KT 18/13 A3001 RMK A01 T01830132  RH  075%=      5-min Rain = 0
KJTS 160550Z 09010KT 18/13 A30 RMK A01 T01840132  RH  075%=      5-min Rain = 0
KJTS 160555Z 09010KT 18/13 A2999 RMK A01 T01840132  RH  075%=      5-min Rain = 0
KJTS 160600Z 09012KT 19/13 A2999 RMK A01 T01850132  RH  074%=      5-min Rain = 0
KJTS 160605Z 10011KT 19/13 A2998 RMK A01 T01860132  RH  074%=      5-min Rain = 0
KJTS 160610Z 10010KT 19/13 A2998 RMK A01 T01860133  RH  075%=      5-min Rain = 0
KJTS 160615Z 10010KT 19/13 A2997 RMK A01 T01880132  RH  073%=      5-min Rain = 0
KJTS 160620Z 10011KT 19/13 A2997 RMK A01 T01900132  RH  072%=      5-min Rain = 0
KJTS 160625Z 10010KT 19/13 A2996 RMK A01 T01900132  RH  072%=      5-min Rain = 0
KJTS 160630Z 10010KT 19/13 A2996 RMK A01 T01910133  RH  072%=      5-min Rain = 0
KJTS 160635Z 10009KT 19/13 A2995 RMK A01 T01920134  RH  072%=      5-min Rain = 0
KJTS 160640Z 11010KT 19/13 A2995 RMK A01 T01920134  RH  072%=      5-min Rain = 0
KJTS 160645Z 12010KT 19/13 A2994 RMK A01 T01910134  RH  072%=      5-min Rain = 0
KJTS 160650Z 13010KT 19/13 A2993 RMK A01 T01890133  RH  073%=      5-min Rain = 0
KJTS 160655Z 14008KT 19/13 A2993 RMK A01 T01880133  RH  074%=      5-min Rain = 0
KJTS 160700Z 16007KT 19/13 A2993 RMK A01 T01850134  RH  075%=      5-min Rain = 0
KJTS 160705Z 17006KT 18/13 A2994 RMK A01 T01820133  RH  076%=      5-min Rain = 0
KJTS 160710Z 15005KT 18/13 A2994 RMK A01 T01800134  RH  077%=      5-min Rain = 0
KJTS 160715Z 15004KT 18/13 A2994 RMK A01 T01800134  RH  078%=      5-min Rain = 0
KJTS 160720Z 14005KT 18/14 A2993 RMK A01 T01780135  RH  079%=      5-min Rain = 0
KJTS 160725Z 13005KT 18/14 A2993 RMK A01 T01770136  RH  080%=      5-min Rain = 0
KJTS 160730Z 14005KT 18/14 A2994 RMK A01 T01770137  RH  081%=      5-min Rain = 0
KJTS 160735Z 16006KT 18/14 A2994 RMK A01 T01790138  RH  080%=      5-min Rain = 0
KJTS 160740Z 16006KT 18/14 A2995 RMK A01 T01790138  RH  080%=      5-min Rain = 0
KJTS 160745Z 16006KT 18/14 A2996 RMK A01 T01800139  RH  081%=      5-min Rain = 0
KJTS 160750Z 18006KT 18/14 A2997 RMK A01 T01790139  RH  081%=      5-min Rain = 0
KJTS 160755Z 17004KT 18/14 A2997 RMK A01 T01750138  RH  082%=      5-min Rain = 0
KJTS 160800Z 16004KT 17/14 A2997 RMK A01 T01740138  RH  083%=      5-min Rain = 0
KJTS 160805Z 16005KT 17/14 A2998 RMK A01 T01740139  RH  083%=      5-min Rain = 0
KJTS 160810Z 16006KT 18/14 A2998 RMK A01 T01770140  RH  082%=      5-min Rain = 0
KJTS 160815Z 17005KT 18/14 A2997 RMK A01 T01780140  RH  082%=      5-min Rain = 0
KJTS 160820Z 19003KT 18/14 A2998 RMK A01 T01780140  RH  082%=      5-min Rain = 0
KJTS 160825Z 21004KT 18/14 A2998 RMK A01 T01760140  RH  083%=      5-min Rain = 0
KJTS 160830Z 19003KT 18/14 A2998 RMK A01 T01780142  RH  083%=      5-min Rain = 0
KJTS 160835Z 18003KT 18/14 A2998 RMK A01 T01800141  RH  082%=      5-min Rain = 0
KJTS 160840Z 21002KT 18/14 A2998 RMK A01 T01800141  RH  081%=      5-min Rain = 0
KJTS 160845Z 20002KT 18/14 A2998 RMK A01 T01790140  RH  082%=      5-min Rain = 0
KJTS 160850Z 19003KT 18/14 A2998 RMK A01 T01790141  RH  082%=      5-min Rain = 0
KJTS 160855Z 16003KT 18/14 A2998 RMK A01 T01790141  RH  082%=      5-min Rain = 0
KJTS 160900Z 12002KT 18/14 A2998 RMK A01 T01770142  RH  084%=      5-min Rain = 0
KJTS 160905Z 07003KT 18/14 A2998 RMK A01 T01770142  RH  084%=      5-min Rain = 0
KJTS 160910Z 04005KT 18/14 A2998 RMK A01 T01770142  RH  084%=      5-min Rain = 0
KJTS 160915Z 04006KT 18/14 A2998 RMK A01 T01760144  RH  085%=      5-min Rain = 0
KJTS 160920Z 05004KT 18/14 A2998 RMK A01 T01770144  RH  085%=      5-min Rain = 0
KJTS 160925Z 10004KT 18/14 A2998 RMK A01 T01780144  RH  084%=      5-min Rain = 0
KJTS 160930Z 13004KT 18/15 A2998 RMK A01 T01770145  RH  085%=      5-min Rain = 0
KJTS 160935Z 13004KT 18/15 A2998 RMK A01 T01760145  RH  086%=      5-min Rain = 0
KJTS 160940Z 11005KT 18/15 A2997 RMK A01 T01750145  RH  086%=      5-min Rain = 0
KJTS 160945Z 12005KT 17/15 A2997 RMK A01 T01720145  RH  088%=      5-min Rain = 0
KJTS 160950Z 12006KT 17/15 A2996 RMK A01 T01720145  RH  088%=      5-min Rain = 0
KJTS 160955Z 13006KT 17/15 A2996 RMK A01 T01740146  RH  087%=      5-min Rain = 0
KJTS 161000Z 10004KT 18/14 A2996 RMK A01 T01750144  RH  086%=      5-min Rain = 0
KJTS 161005Z 07004KT 17/15 A2996 RMK A01 T01730145  RH  087%=      5-min Rain = 0
KJTS 161010Z 03003KT 17/15 A2997 RMK A01 T01740145  RH  087%=      5-min Rain = 0
KJTS 161015Z 04005KT 18/15 A2996 RMK A01 T01750145  RH  086%=      5-min Rain = 0
KJTS 161020Z 05002KT 18/15 A2998 RMK A01 T01760146  RH  086%=      5-min Rain = 0
KJTS 161025Z 27002KT 18/15 A2998 RMK A01 T01770148  RH  087%=      5-min Rain = 0
KJTS 161030Z 31002KT 18/15 A2997 RMK A01 T01760148  RH  087%=      5-min Rain = 0
KJTS 161035Z 26003KT 18/15 A2997 RMK A01 T01760149  RH  087%=      5-min Rain = 0
KJTS 161040Z 24003KT 18/15 A2996 RMK A01 T01770149  RH  088%=      5-min Rain = 0
KJTS 161045Z 26001KT 18/15 A2996 RMK A01 T01770149  RH  087%=      5-min Rain = 0
KJTS 161050Z 26000KT 18/15 A2997 RMK A01 T01770149  RH  087%=      5-min Rain = 0
KJTS 161055Z 23005KT 18/15 A2997 RMK A01 T01780150  RH  088%=      5-min Rain = 0
KJTS 161100Z 24007KT 18/15 A2997 RMK A01 T01780150  RH  087%=      5-min Rain = 0
KJTS 161105Z 22005KT 18/15 A2997 RMK A01 T01800149  RH  086%=      5-min Rain = 0
KJTS 161110Z 20005KT 18/15 A2996 RMK A01 T01810150  RH  086%=      5-min Rain = 0
KJTS 161115Z 19007KT 18/15 A2996 RMK A01 T01810152  RH  086%=      5-min Rain = 0
KJTS 161120Z 20004KT 18/15 A2997 RMK A01 T01820152  RH  087%=      5-min Rain = 0
KJTS 161125Z 01008KT 18/15 A2999 RMK A01 T01820153  RH  087%=      5-min Rain = 0
KJTS 161130Z 35010KT 18/15 A3002 RMK A01 T01830153  RH  086%=      5-min Rain = 0
KJTS 161135Z 32006KT 19/15 A3003 RMK A01 T01850153  RH  085%=      5-min Rain = 0
KJTS 161140Z 03005KT 19/15 A30 RMK A01 T01870153  RH  084%=      5-min Rain = 0
KJTS 161145Z 05005KT 19/15 A30 RMK A01 T01870153  RH  084%=      5-min Rain = 0
KJTS 161150Z 08004KT 19/15 A30 RMK A01 T01870154  RH  085%=      5-min Rain = 0
KJTS 161155Z 13007KT 19/16 A2999 RMK A01 T01850155  RH  086%=      5-min Rain = 0
KJTS 161200Z 26005KT 19/16 A3002 RMK A01 T01850155  RH  087%=      5-min Rain = 0
KJTS 161205Z 01010G15KT 18/16 A3002 RMK A01 T01840155  RH  087%=      5-min Rain = 0
KJTS 161210Z 03008G14KT 18/15 A3002 RMK A01 T01790150  RH  087%=      5-min Rain = 0
KJTS 161215Z 00008KT 18/15 A3003 RMK A01 T01770150  RH  088%=      5-min Rain = 0
KJTS 161220Z 00010G15KT 18/15 A3004 RMK A01 T01750151  RH  089%=      5-min Rain = 0
KJTS 161225Z 01009G14KT 17/15 A3003 RMK A01 T01720149  RH  091%=      5-min Rain = 0.01
KJTS 161230Z 01009KT 17/15 A3005 RMK A01 T01700149  RH  092%=      5-min Rain = 0
KJTS 161235Z 01010KT 17/15 A3005 RMK A01 T01690149  RH  092%=      5-min Rain = 0.01
KJTS 161240Z 06009KT 17/15 A3003 RMK A01 T01680148  RH  092%=      5-min Rain = 0.05
KJTS 161245Z 06007G12KT 17/15 A3003 RMK A01 T01670148  RH  093%=      5-min Rain = 0
KJTS 161250Z 05007KT 17/15 A3004 RMK A01 T01670148  RH  092%=      5-min Rain = 0.01
KJTS 161255Z 06007KT 17/15 A3004 RMK A01 T01670147  RH  092%=      5-min Rain = 0.05
KJTS 161300Z 10011KT 17/15 A3003 RMK A01 T01660148  RH  093%=      5-min Rain = 0
KJTS 161305Z 08009KT 17/15 A3003 RMK A01 T01660147  RH  093%=      5-min Rain = 0.01
KJTS 161310Z 07008KT 17/15 A3003 RMK A01 T01660147  RH  093%=      5-min Rain = 0
KJTS 161315Z 06010KT 17/15 A3003 RMK A01 T01660147  RH  093%=      5-min Rain = 0
KJTS 161320Z 07007KT 17/15 A3004 RMK A01 T01670146  RH  091%=      5-min Rain = 0
KJTS 161325Z 01004KT 17/15 A3006 RMK A01 T01690147  RH  091%=      5-min Rain = 0
KJTS 161330Z 04005KT 17/15 A3006 RMK A01 T01690147  RH  091%=      5-min Rain = 0
KJTS 161335Z 07006KT 17/15 A3005 RMK A01 T01690148  RH  091%=      5-min Rain = 0.01
KJTS 161340Z 05004KT 17/15 A3006 RMK A01 T01690148  RH  091%=      5-min Rain = 0
KJTS 161345Z 16003KT 17/15 A3006 RMK A01 T01700149  RH  091%=      5-min Rain = 0
KJTS 161350Z 15005KT 17/15 A3006 RMK A01 T01710150  RH  092%=      5-min Rain = 0
KJTS 161355Z 11007KT 17/15 A3005 RMK A01 T01710150  RH  092%=      5-min Rain = 0
KJTS 161400Z 12009KT 17/15 A3005 RMK A01 T01730153  RH  092%=      5-min Rain = 0
KJTS 161405Z 12009KT 18/16 A3004 RMK A01 T01790155  RH  090%=      5-min Rain = 0
KJTS 161410Z 12010KT 18/15 A3003 RMK A01 T01820153  RH  087%=      5-min Rain = 0
KJTS 161415Z 12008KT 19/15 A3003 RMK A01 T01860154  RH  085%=      5-min Rain = 0
KJTS 161420Z 12010KT 19/16 A3003 RMK A01 T01920156  RH  084%=      5-min Rain = 0
KJTS 161425Z 13011KT 20/16 A3003 RMK A01 T01970156  RH  081%=      5-min Rain = 0
KJTS 161430Z 13010KT 20/16 A3002 RMK A01 T02000157  RH  080%=      5-min Rain = 0
KJTS 161435Z 12011KT 21/16 A3002 RMK A01 T02070158  RH  077%=      5-min Rain = 0
KJTS 161440Z 12011KT 21/15 A3003 RMK A01 T02090153  RH  074%=      5-min Rain = 0
KJTS 161445Z 12009KT 21/15 A3003 RMK A01 T02130153  RH  072%=      5-min Rain = 0
KJTS 161450Z 12006KT 22/15 A3003 RMK A01 T02190150  RH  068%=      5-min Rain = 0
KJTS 161455Z 15005KT 22/14 A3003 RMK A01 T02200144  RH  065%=      5-min Rain = 0
KJTS 161500Z 16005KT 22/15 A3003 RMK A01 T02190145  RH  065%=      5-min Rain = 0
KJTS 161505Z 17007KT 22/14 A3003 RMK A01 T02210140  RH  063%=      5-min Rain = 0
KJTS 161510Z 17005KT 22/14 A3004 RMK A01 T02210143  RH  064%=      5-min Rain = 0
KJTS 161515Z 20005KT 22/14 A3004 RMK A01 T02220143  RH  063%=      5-min Rain = 0
KJTS 161520Z 20004KT 22/14 A3004 RMK A01 T02220143  RH  064%=      5-min Rain = 0
KJTS 161525Z 22003KT 22/14 A3004 RMK A01 T02210143  RH  064%=      5-min Rain = 0
KJTS 161530Z 25004KT 22/15 A3005 RMK A01 T02210149  RH  067%=      5-min Rain = 0
KJTS 161535Z 33003KT 22/15 A3006 RMK A01 T02210150  RH  067%=      5-min Rain = 0
KJTS 161540Z 02003KT 22/15 A3006 RMK A01 T02220151  RH  067%=      5-min Rain = 0
KJTS 161545Z 05003KT 23/14 A3006 RMK A01 T02270144  RH  062%=      5-min Rain = 0
KJTS 161550Z 04003KT 23/14 A3005 RMK A01 T02320144  RH  060%=      5-min Rain = 0
KJTS 161555Z 36003KT 23/15 A3005 RMK A01 T02320145  RH  060%=      5-min Rain = 0
KJTS 161600Z 34003KT 23/14 A3005 RMK A01 T02330143  RH  059%=      5-min Rain = 0
KJTS 161605Z 35005KT 23/14 A3005 RMK A01 T02330142  RH  059%=      5-min Rain = 0
KJTS 161610Z 31004KT 24/14 A3005 RMK A01 T02370139  RH  056%=      5-min Rain = 0
KJTS 161615Z 01003KT 24/14 A3005 RMK A01 T02370141  RH  057%=      5-min Rain = 0
KJTS 161620Z 07001KT 24/14 A3005 RMK A01 T02370140  RH  057%=      5-min Rain = 0
KJTS 161625Z 06001KT 24/14 A3006 RMK A01 T02410141  RH  056%=      5-min Rain = 0
KJTS 161630Z 34003KT 24/14 A3005 RMK A01 T02430142  RH  056%=      5-min Rain = 0
KJTS 161635Z 36003KT 24/14 A3005 RMK A01 T02440142  RH  055%=      5-min Rain = 0
KJTS 161640Z 06006KT 25/14 A3005 RMK A01 T02470138  RH  053%=      5-min Rain = 0
KJTS 161645Z 06004G9KT 25/13 A3005 RMK A01 T02490130  RH  050%=      5-min Rain = 0
KJTS 161650Z 00005G11KT 25/14 A3005 RMK A01 T02530141  RH  052%=      5-min Rain = 0
KJTS 161655Z 01006KT 25/15 A3005 RMK A01 T02530149  RH  055%=      5-min Rain = 0
KJTS 161700Z 05007KT 25/14 A3005 RMK A01 T02540143  RH  052%=      5-min Rain = 0
KJTS 161705Z 01008KT 25/15 A3005 RMK A01 T02520146  RH  054%=      5-min Rain = 0
KJTS 161710Z 02008G13KT 25/15 A3005 RMK A01 T02490151  RH  057%=      5-min Rain = 0
KJTS 161715Z 04006KT 25/16 A3005 RMK A01 T02500155  RH  058%=      5-min Rain = 0
KJTS 161720Z 02006KT 25/16 A3004 RMK A01 T02540158  RH  058%=      5-min Rain = 0
KJTS 161725Z 01008KT 26/16 A3004 RMK A01 T02550156  RH  057%=      5-min Rain = 0
KJTS 161730Z 04006KT 26/15 A3004 RMK A01 T02550146  RH  053%=      5-min Rain = 0
KJTS 161735Z 06006KT 26/13 A3003 RMK A01 T02600134  RH  048%=      5-min Rain = 0
KJTS 161740Z 07006KT 26/13 A3003 RMK A01 T02620127  RH  045%=      5-min Rain = 0
KJTS 161745Z 04006KT 26/13 A3003 RMK A01 T02640128  RH  045%=      5-min Rain = 0
KJTS 161750Z 06005KT 27/13 A3003 RMK A01 T02660129  RH  044%=      5-min Rain = 0
KJTS 161755Z 05006KT 27/13 A3003 RMK A01 T02680126  RH  043%=      5-min Rain = 0
KJTS 161800Z 05005KT 27/13 A3003 RMK A01 T02670126  RH  043%=      5-min Rain = 0
KJTS 161805Z 07007KT 27/13 A3003 RMK A01 T02710132  RH  044%=      5-min Rain = 0
KJTS 161810Z 08005G10KT 27/13 A3003 RMK A01 T02740125  RH  041%=      5-min Rain = 0
KJTS 161815Z 08008G13KT 28/13 A3002 RMK A01 T02770126  RH  041%=      5-min Rain = 0
KJTS 161820Z 08007KT 28/12 A3002 RMK A01 T02790122  RH  039%=      5-min Rain = 0
KJTS 161825Z 09005G10KT 28/12 A3002 RMK A01 T02800118  RH  038%=      5-min Rain = 0
KJTS 161830Z 09007KT 28/12 A3002 RMK A01 T02820119  RH  038%=      5-min Rain = 0
KJTS 161835Z 09008G13KT 28/12 A3001 RMK A01 T02820116  RH  037%=      5-min Rain = 0
KJTS 161840Z 07006KT 28/12 A3001 RMK A01 T02810117  RH  038%=      5-min Rain = 0
KJTS 161845Z 06007KT 28/12 A3001 RMK A01 T02830118  RH  037%=      5-min Rain = 0
KJTS 161850Z 07004KT 29/12 A30 RMK A01 T02850119  RH  037%=      5-min Rain = 0
KJTS 161855Z 03005G10KT 28/12 A30 RMK A01 T02840120  RH  038%=      5-min Rain = 0
KJTS 161900Z 09008KT 28/12 A2999 RMK A01 T02840122  RH  038%=      5-min Rain = 0
KJTS 161905Z 08006KT 29/12 A2999 RMK A01 T02850122  RH  038%=      5-min Rain = 0
KJTS 161910Z 04004KT 28/12 A2999 RMK A01 T02840121  RH  038%=      5-min Rain = 0
KJTS 161915Z 11005G10KT 29/12 A2999 RMK A01 T02860122  RH  038%=      5-min Rain = 0
KJTS 161920Z 12006KT 29/12 A2999 RMK A01 T02870119  RH  037%=      5-min Rain = 0
KJTS 161925Z 07005KT 29/12 A2999 RMK A01 T02870121  RH  037%=      5-min Rain = 0
KJTS 161930Z 06004KT 29/12 A2998 RMK A01 T02850117  RH  037%=      5-min Rain = 0
KJTS 161935Z 07004KT 29/12 A2998 RMK A01 T02870119  RH  037%=      5-min Rain = 0
KJTS 161940Z 09005KT 29/12 A2998 RMK A01 T02920119  RH  036%=      5-min Rain = 0
KJTS 161945Z 07009KT 30/12 A2998 RMK A01 T02990118  RH  034%=      5-min Rain = 0
KJTS 161950Z 10006KT 30/12 A2997 RMK A01 T03020115  RH  033%=      5-min Rain = 0
KJTS 161955Z 10007G13KT 30/11 A2997 RMK A01 T03030110  RH  032%=      5-min Rain = 0
KJTS 162000Z 07006G11KT 30/11 A2996 RMK A01 T03010110  RH  032%=      5-min Rain = 0
KJTS 162005Z 10009KT 31/11 A2996 RMK A01 T03050111  RH  031%=      5-min Rain = 0
KJTS 162010Z 12009KT 31/11 A2996 RMK A01 T03070107  RH  030%=      5-min Rain = 0
KJTS 162015Z 10010G15KT 31/11 A2995 RMK A01 T03060105  RH  030%=      5-min Rain = 0
KJTS 162020Z 12010KT 31/10 A2995 RMK A01 T03070101  RH  029%=      5-min Rain = 0
KJTS 162025Z 13008KT 31/10 A2994 RMK A01 T03060100  RH  029%=      5-min Rain = 0
KJTS 162030Z 10009KT 31/10 A2995 RMK A01 T03080096  RH  028%=      5-min Rain = 0
KJTS 162035Z 11008G14KT 31/09 A2995 RMK A01 T03070094  RH  027%=      5-min Rain = 0
KJTS 162040Z 08008KT 31/09 A2995 RMK A01 T03070092  RH  027%=      5-min Rain = 0
KJTS 162045Z 10009KT 31/09 A2994 RMK A01 T03100093  RH  027%=      5-min Rain = 0
KJTS 162050Z 09011KT 31/10 A2994 RMK A01 T03130095  RH  027%=      5-min Rain = 0
KJTS 162055Z 12008G13KT 31/10 A2994 RMK A01 T03120095  RH  027%=      5-min Rain = 0
KJTS 162100Z 11008G15KT 31/09 A2994 RMK A01 T03140088  RH  025%=      5-min Rain = 0
KJTS 162105Z 10008KT 31/09 A2994 RMK A01 T03130088  RH  025%=      5-min Rain = 0
KJTS 162110Z 11006KT 32/09 A2994 RMK A01 T03150086  RH  025%=      5-min Rain = 0
KJTS 162115Z 08008KT 31/09 A2994 RMK A01 T03140088  RH  025%=      5-min Rain = 0
KJTS 162120Z 12008KT 32/09 A2994 RMK A01 T03170090  RH  025%=      5-min Rain = 0
KJTS 162125Z 13005KT 32/08 A2994 RMK A01 T03180084  RH  024%=      5-min Rain = 0
KJTS 162130Z 15006KT 32/08 A2994 RMK A01 T03180084  RH  024%=      5-min Rain = 0
KJTS 162135Z 17007KT 32/09 A2994 RMK A01 T03220086  RH  024%=      5-min Rain = 0
KJTS 162140Z 20006KT 32/09 A2993 RMK A01 T03220086  RH  024%=      5-min Rain = 0
KJTS 162145Z 19007KT 32/09 A2994 RMK A01 T03200091  RH  025%=      5-min Rain = 0
KJTS 162150Z 14008G13KT 32/09 A2993 RMK A01 T03230092  RH  025%=      5-min Rain = 0
KJTS 162155Z 11007KT 32/09 A2993 RMK A01 T03200091  RH  025%=      5-min Rain = 0
KJTS 162200Z 12007G13KT 32/09 A2993 RMK A01 T03190092  RH  025%=      5-min Rain = 0
KJTS 162205Z 10003KT 32/09 A2993 RMK A01 T03190089  RH  025%=      5-min Rain = 0
KJTS 162210Z 11004KT 32/09 A2993 RMK A01 T03200092  RH  025%=      5-min Rain = 0
KJTS 162215Z 15005KT 32/09 A2993 RMK A01 T03220094  RH  025%=      5-min Rain = 0
KJTS 162220Z 15007KT 32/09 A2992 RMK A01 T03240092  RH  025%=      5-min Rain = 0
KJTS 162225Z 14008G13KT 32/09 A2992 RMK A01 T03240094  RH  025%=      5-min Rain = 0
KJTS 162230Z 10004KT 33/09 A2992 RMK A01 T03250092  RH  024%=      5-min Rain = 0
KJTS 162235Z 14005G11KT 32/09 A2992 RMK A01 T03240092  RH  025%=      5-min Rain = 0
KJTS 162240Z 17007G12KT 32/10 A2992 RMK A01 T03240096  RH  025%=      5-min Rain = 0
KJTS 162245Z 16006G13KT 33/09 A2992 RMK A01 T03260094  RH  025%=      5-min Rain = 0
KJTS 162250Z 14010G15KT 32/10 A2992 RMK A01 T03240096  RH  025%=      5-min Rain = 0
KJTS 162255Z 11009KT 32/09 A2992 RMK A01 T03210091  RH  025%=      5-min Rain = 0
KJTS 162300Z 13008KT 32/09 A2991 RMK A01 T03210092  RH  025%=      5-min Rain = 0
KJTS 162305Z 12007KT 32/09 A2991 RMK A01 T03210090  RH  025%=      5-min Rain = 0
KJTS 162310Z 11005KT 32/09 A2991 RMK A01 T03220091  RH  025%=      5-min Rain = 0
KJTS 162315Z 10003KT 32/09 A2991 RMK A01 T03220090  RH  025%=      5-min Rain = 0
KJTS 162320Z 12006KT 32/09 A2991 RMK A01 T03230090  RH  025%=      5-min Rain = 0
KJTS 162325Z 12009G14KT 32/09 A2991 RMK A01 T03240090  RH  024%=      5-min Rain = 0
KJTS 162330Z 11010KT 32/09 A2991 RMK A01 T03240092  RH  025%=      5-min Rain = 0
KJTS 162335Z 12008KT 32/09 A2991 RMK A01 T03240091  RH  025%=      5-min Rain = 0
KJTS 162340Z 10009KT 32/09 A299 RMK A01 T03220090  RH  025%=      5-min Rain = 0
KJTS 162345Z 13008KT 32/09 A299 RMK A01 T03210093  RH  025%=      5-min Rain = 0
KJTS 162350Z 13008KT 32/09 A299 RMK A01 T03200087  RH  024%=      5-min Rain = 0
KJTS 162355Z 13009KT 32/09 A299 RMK A01 T03200090  RH  025%=      5-min Rain = 0
KJTS 170000Z 13009KT 32/09 A299 RMK A01 T03180089  RH  025%=      5-min Rain = 0
KJTS 170005Z 12009G14KT 32/09 A299 RMK A01 T03170091  RH  025%=      5-min Rain = 0
KJTS 170010Z 12009KT 32/09 A299 RMK A01 T03160091  RH  026%=      5-min Rain = 0
KJTS 170015Z 11012KT 31/09 A299 RMK A01 T03140092  RH  026%=      5-min Rain = 0
KJTS 170020Z 12010KT 31/09 A2989 RMK A01 T03130094  RH  027%=      5-min Rain = 0
KJTS 170025Z 11011KT 31/09 A2989 RMK A01 T03110091  RH  026%=      5-min Rain = 0
KJTS 170030Z 10011KT 31/09 A2989 RMK A01 T03100090  RH  026%=      5-min Rain = 0
KJTS 170035Z 11010KT 31/09 A2989 RMK A01 T03090093  RH  027%=      5-min Rain = 0
KJTS 170040Z 11011KT 31/09 A2989 RMK A01 T03080091  RH  027%=      5-min Rain = 0
KJTS 170045Z 10011KT 31/09 A2989 RMK A01 T03060090  RH  027%=      5-min Rain = 0
KJTS 170050Z 10011KT 30/09 A2989 RMK A01 T03040091  RH  027%=      5-min Rain = 0
KJTS 170055Z 10010KT 30/09 A2989 RMK A01 T03030093  RH  028%=      5-min Rain = 0
KJTS 170100Z 10011KT 30/09 A2989 RMK A01 T03010093  RH  028%=      5-min Rain = 0
KJTS 170105Z 11010KT 30/09 A2989 RMK A01 T02990093  RH  029%=      5-min Rain = 0
KJTS 170110Z 11010KT 30/09 A2989 RMK A01 T02960094  RH  029%=      5-min Rain = 0
KJTS 170115Z 11009KT 29/09 A2989 RMK A01 T02930094  RH  030%=      5-min Rain = 0
KJTS 170120Z 11008KT 29/10 A299 RMK A01 T02910095  RH  031%=      5-min Rain = 0
KJTS 170125Z 11007KT 29/10 A299 RMK A01 T02870097  RH  032%=      5-min Rain = 0
KJTS 170130Z 08011G18KT 28/11 A299 RMK A01 T02840105  RH  034%=      5-min Rain = 0
KJTS 170135Z 08013KT 28/12 A299 RMK A01 T02800124  RH  039%=      5-min Rain = 0
KJTS 170140Z 08012KT 28/13 A2991 RMK A01 T02770126  RH  041%=      5-min Rain = 0
KJTS 170145Z 08014KT 28/13 A2991 RMK A01 T02760126  RH  041%=      5-min Rain = 0
KJTS 170150Z 08013KT 27/13 A2991 RMK A01 T02740127  RH  042%=      5-min Rain = 0
KJTS 170155Z 09014KT 27/13 A2991 RMK A01 T02720128  RH  043%=      5-min Rain = 0
KJTS 170200Z 08014KT 27/13 A2991 RMK A01 T02710127  RH  043%=      5-min Rain = 0
KJTS 170205Z 08012KT 27/13 A2991 RMK A01 T02690127  RH  043%=      5-min Rain = 0
KJTS 170210Z 08012KT 27/13 A2992 RMK A01 T02680127  RH  043%=      5-min Rain = 0
KJTS 170215Z 09011KT 27/13 A2992 RMK A01 T02660129  RH  044%=      5-min Rain = 0
KJTS 170220Z 09012KT 26/13 A2992 RMK A01 T02640130  RH  045%=      5-min Rain = 0
KJTS 170225Z 09012KT 26/13 A2992 RMK A01 T02630130  RH  046%=      5-min Rain = 0
KJTS 170230Z 09013KT 26/13 A2992 RMK A01 T02620128  RH  045%=      5-min Rain = 0
KJTS 170235Z 08011KT 26/13 A2992 RMK A01 T02610128  RH  045%=      5-min Rain = 0
KJTS 170240Z 09012KT 26/13 A2993 RMK A01 T02600128  RH  046%=      5-min Rain = 0
KJTS 170245Z 09010KT 26/13 A2993 RMK A01 T02580129  RH  047%=      5-min Rain = 0
KJTS 170250Z 09010KT 26/13 A2993 RMK A01 T02560132  RH  048%=      5-min Rain = 0
KJTS 170255Z 09011KT 26/14 A2993 RMK A01 T02550135  RH  049%=      5-min Rain = 0
KJTS 170300Z 09010KT 25/14 A2993 RMK A01 T02530137  RH  051%=      5-min Rain = 0
KJTS 170305Z 09008KT 25/14 A2993 RMK A01 T02520138  RH  051%=      5-min Rain = 0
KJTS 170310Z 09011KT 25/14 A2993 RMK A01 T02500135  RH  051%=      5-min Rain = 0
KJTS 170315Z 09011KT 25/13 A2993 RMK A01 T02490133  RH  050%=      5-min Rain = 0
KJTS 170320Z 09010KT 25/13 A2994 RMK A01 T02480133  RH  051%=      5-min Rain = 0
KJTS 170325Z 09011KT 25/13 A2993 RMK A01 T02470132  RH  051%=      5-min Rain = 0
KJTS 170330Z 08011KT 25/13 A2993 RMK A01 T02460130  RH  050%=      5-min Rain = 0
KJTS 170335Z 09010KT 24/13 A2993 RMK A01 T02440131  RH  051%=      5-min Rain = 0
KJTS 170340Z 09009KT 24/13 A2994 RMK A01 T02420131  RH  052%=      5-min Rain = 0
KJTS 170345Z 09010KT 24/13 A2994 RMK A01 T02400132  RH  053%=      5-min Rain = 0
KJTS 170350Z 09010KT 24/13 A2994 RMK A01 T02400132  RH  053%=      5-min Rain = 0
KJTS 170355Z 10010KT 24/13 A2994 RMK A01 T02390133  RH  054%=      5-min Rain = 0
KJTS 170400Z 10009KT 24/13 A2994 RMK A01 T02370134  RH  055%=      5-min Rain = 0
KJTS 170405Z 10010KT 24/13 A2995 RMK A01 T02350133  RH  055%=      5-min Rain = 0
KJTS 170410Z 10010KT 24/13 A2995 RMK A01 T02360132  RH  054%=      5-min Rain = 0
KJTS 170415Z 10011KT 24/13 A2995 RMK A01 T02350130  RH  054%=      5-min Rain = 0
KJTS 170420Z 10011KT 24/13 A2995 RMK A01 T02350129  RH  053%=      5-min Rain = 0
KJTS 170425Z 10009KT 23/13 A2995 RMK A01 T02340130  RH  054%=      5-min Rain = 0
KJTS 170430Z 11009KT 23/13 A2996 RMK A01 T02330131  RH  055%=      5-min Rain = 0
KJTS 170435Z 12009KT 23/13 A2996 RMK A01 T02320132  RH  056%=      5-min Rain = 0
KJTS 170440Z 12009KT 23/13 A2996 RMK A01 T02310132  RH  056%=      5-min Rain = 0
KJTS 170445Z 12008KT 23/13 A2996 RMK A01 T02300133  RH  057%=      5-min Rain = 0
KJTS 170450Z 13007KT 23/13 A2996 RMK A01 T02290133  RH  057%=      5-min Rain = 0
KJTS 170455Z 13006KT 23/13 A2996 RMK A01 T02280134  RH  058%=      5-min Rain = 0

Page generated in 0.0208 seconds.